Time;durP1;ratioP1;P1;durP2;ratioP2;P2;SDS_P1;SDS_P2;PMS_P1;PMS_P2;Temp;Humidity;BMP_temperature;BMP_pressure;BME280_temperature;BME280_humidity;BME280_pressure;Samples;Min_cycle;Max_cycle;Signal;HPM_P1;HPM_P2
2022/08/02 00:01:31;;;;;;;1.58;1.20;;;;;;;22.96;56.39;94414.88;5001523;28;20026;-90
2022/08/02 00:03:56;;;;;;;2.55;1.20;;;;;;;22.82;57.50;94411.88;5001427;28;20026;-90
2022/08/02 00:06:22;;;;;;;2.25;1.25;;;;;;;22.81;56.58;94412.97;5017474;28;20439;-90
2022/08/02 00:08:47;;;;;;;2.08;1.20;;;;;;;22.63;57.08;94412.53;5017438;28;20053;-91
2022/08/02 00:11:13;;;;;;;1.75;1.30;;;;;;;22.70;56.44;94418.84;5001530;28;20171;-91
2022/08/02 00:13:38;;;;;;;2.22;1.40;;;;;;;22.72;56.21;94415.81;5001355;28;20033;-91
2022/08/02 00:16:04;;;;;;;2.95;1.20;;;;;;;22.67;56.27;94406.19;5001395;28;20048;-91
2022/08/02 00:18:30;;;;;;;1.90;1.40;;;;;;;22.72;55.71;94416.59;5001313;28;20164;-91
2022/08/02 00:20:55;;;;;;;1.65;1.10;;;;;;;22.84;53.61;94412.28;5017873;28;20026;-90
2022/08/02 00:23:21;;;;;;;2.63;1.20;;;;;;;22.90;53.19;94412.81;5001131;28;20065;-92
2022/08/02 00:25:46;;;;;;;2.45;1.10;;;;;;;22.72;53.92;94411.25;5017215;28;20064;-91
2022/08/02 00:28:14;;;;;;;1.42;1.05;;;;;;;22.84;54.00;94412.28;5017277;28;20129;-91
2022/08/02 00:30:40;;;;;;;1.42;1.00;;;;;;;22.94;52.96;94411.75;5017183;28;20030;-90
2022/08/02 00:33:07;;;;;;;3.17;1.13;;;;;;;22.91;53.25;94412.44;5016956;28;20472;-90
2022/08/02 00:35:33;;;;;;;1.30;0.95;;;;;;;22.77;55.61;94412.91;5001134;28;20060;-91
2022/08/02 00:37:58;;;;;;;2.20;1.33;;;;;;;22.75;53.59;94415.13;5016994;28;20116;-91
2022/08/02 00:40:23;;;;;;;1.98;1.13;;;;;;;22.75;53.54;94407.13;5017166;28;20029;-90
2022/08/02 00:43:06;;;;;;;1.58;1.10;;;;;;;22.80;52.23;94401.50;5017219;28;20080;-91
2022/08/02 00:45:37;;;;;;;3.10;1.17;;;;;;;22.54;56.11;94408.13;5000705;28;20057;-91
2022/08/02 00:48:04;;;;;;;2.45;1.10;;;;;;;22.72;54.14;94411.25;5018230;28;20026;-91
2022/08/02 00:51:08;;;;;;;2.20;1.20;;;;;;;22.87;51.55;94408.94;5000712;28;20033;-90
2022/08/02 00:53:34;;;;;;;4.05;1.00;;;;;;;22.82;52.41;94401.19;5017854;28;20022;-90
2022/08/02 00:55:59;;;;;;;1.95;1.20;;;;;;;22.82;53.47;94404.63;5016618;28;20029;-90
2022/08/02 00:58:25;;;;;;;3.15;1.10;;;;;;;22.85;52.56;94403.16;5035840;28;20040;-91
2022/08/02 01:00:51;;;;;;;1.83;0.90;;;;;;;22.88;53.06;94402.47;5020283;28;20053;-91
2022/08/02 01:03:16;;;;;;;3.85;1.10;;;;;;;22.78;54.50;94408.31;5019638;28;20025;-91
2022/08/02 01:05:43;;;;;;;2.20;1.20;;;;;;;22.79;52.57;94409.84;5019934;28;20025;-90
2022/08/02 01:08:08;;;;;;;1.88;1.08;;;;;;;22.71;51.97;94408.91;5036376;28;20116;-90
2022/08/02 01:10:34;;;;;;;1.63;0.98;;;;;;;22.55;52.21;94415.00;5019924;28;20140;-91
2022/08/02 01:12:59;;;;;;;2.95;1.15;;;;;;;22.57;52.35;94412.78;5036064;28;20057;-91
2022/08/02 01:15:25;;;;;;;1.85;1.20;;;;;;;22.62;53.15;94411.75;5019709;28;20048;-91
2022/08/02 01:18:03;;;;;;;1.85;1.10;;;;;;;22.46;53.50;94415.16;5035950;28;20025;-90
2022/08/02 01:21:16;;;;;;;1.58;1.15;;;;;;;22.56;52.52;94418.47;5036058;28;20044;-90
2022/08/02 01:24:01;;;;;;;0.98;0.88;;;;;;;22.71;53.38;94427.59;5021911;28;20353;-91
2022/08/02 01:26:37;;;;;;;4.82;1.30;;;;;;;22.57;52.34;94428.78;5037101;28;20427;-91
2022/08/02 01:29:08;;;;;;;4.25;1.10;;;;;;;22.63;53.28;94432.00;5035781;28;20493;-91
2022/08/02 01:31:50;;;;;;;2.15;1.00;;;;;;;22.69;50.23;94437.84;5035704;28;20065;-91
2022/08/02 01:34:31;;;;;;;1.83;1.10;;;;;;;22.79;50.54;94432.00;5035797;28;20021;-91
2022/08/02 01:37:10;;;;;;;1.80;1.20;;;;;;;22.80;52.08;94425.56;5035913;28;20021;-91
2022/08/02 01:39:37;;;;;;;1.25;0.90;;;;;;;22.78;53.14;94413.66;5019331;28;20091;-90
2022/08/02 01:42:04;;;;;;;3.15;1.30;;;;;;;22.82;54.03;94411.88;5035586;28;20033;-91
2022/08/02 01:44:32;;;;;;;1.15;1.05;;;;;;;22.73;53.15;94417.34;5019250;28;20029;-90
2022/08/02 01:47:01;;;;;;;1.55;0.95;;;;;;;22.68;51.75;94420.28;5035607;28;20025;-91
2022/08/02 01:49:29;;;;;;;1.40;1.10;;;;;;;22.51;53.13;94419.50;5035478;28;20041;-90
2022/08/02 01:55:23;;;;;;;1.52;1.10;;;;;;;22.54;52.76;94426.81;5035813;28;20037;-91
2022/08/02 01:57:51;;;;;;;1.17;1.08;;;;;;;22.49;54.16;94432.41;4979203;28;20081;-90
2022/08/02 02:00:18;;;;;;;3.72;1.40;;;;;;;22.42;53.80;94430.31;5025788;28;20038;-90
2022/08/02 02:02:49;;;;;;;2.33;1.60;;;;;;;22.52;53.53;94428.25;5019443;28;20087;-90
2022/08/02 02:05:17;;;;;;;2.05;1.40;;;;;;;22.58;52.43;94427.66;5035649;28;20033;-90
2022/08/02 02:07:43;;;;;;;2.80;1.58;;;;;;;22.53;53.13;94424.50;5019206;28;20049;-91
2022/08/02 02:10:21;;;;;;;3.03;1.65;;;;;;;22.33;53.08;94426.25;5035625;28;20037;-91
2022/08/02 02:12:49;;;;;;;2.72;1.83;;;;;;;22.41;52.27;94428.75;5019620;28;20029;-91
2022/08/02 02:15:15;;;;;;;2.90;1.40;;;;;;;22.49;52.07;94429.75;5036468;28;20034;-92
2022/08/02 02:17:43;;;;;;;1.90;1.70;;;;;;;22.42;51.08;94430.31;5022858;28;20065;-91
2022/08/02 02:20:15;;;;;;;3.10;1.60;;;;;;;22.42;50.83;94424.97;5039461;28;20028;-91
2022/08/02 02:22:43;;;;;;;2.50;1.75;;;;;;;22.66;49.03;94430.53;5023021;28;20080;-92
2022/08/02 02:25:09;;;;;;;2.83;2.10;;;;;;;22.75;48.80;94425.81;5039043;28;20034;-91
2022/08/02 02:27:35;;;;;;;2.15;1.90;;;;;;;22.58;49.75;94424.25;5039401;28;20495;-91
2022/08/02 02:30:02;;;;;;;2.65;1.65;;;;;;;22.66;48.19;94415.28;5039482;28;20075;-91
2022/08/02 02:32:28;;;;;;;2.25;1.90;;;;;;;22.65;50.27;94415.63;5022884;28;20438;-91
2022/08/02 02:34:55;;;;;;;1.58;1.48;;;;;;;22.35;51.77;94413.31;5022320;28;20044;-91
2022/08/02 02:37:21;;;;;;;2.08;1.38;;;;;;;22.33;52.78;94411.00;5039009;28;20430;-91
2022/08/02 02:39:50;;;;;;;3.13;1.92;;;;;;;22.12;50.91;94406.66;5039013;28;20025;-91
2022/08/02 02:42:17;;;;;;;2.42;1.75;;;;;;;22.11;51.52;94405.09;5022607;28;20049;-90
2022/08/02 02:44:45;;;;;;;2.42;1.80;;;;;;;22.05;52.07;94411.00;5023145;28;20486;-91
2022/08/02 02:47:11;;;;;;;3.45;1.83;;;;;;;21.95;53.17;94417.59;5022512;28;20057;-91
2022/08/02 02:49:36;;;;;;;1.88;1.50;;;;;;;21.84;53.80;94420.75;5038702;28;20064;-92
2022/08/02 02:52:03;;;;;;;2.35;1.90;;;;;;;21.97;52.27;94418.03;5022171;28;20032;-91
2022/08/02 02:54:29;;;;;;;2.40;1.90;;;;;;;21.89;53.71;94420.50;5022084;28;20037;-91
2022/08/02 02:56:57;;;;;;;2.03;1.55;;;;;;;21.93;53.16;94425.94;5030852;28;20068;-90
2022/08/02 02:59:23;;;;;;;2.65;2.00;;;;;;;21.85;52.20;94419.63;5028447;28;20407;-91
2022/08/02 03:01:48;;;;;;;2.35;1.88;;;;;;;21.76;54.24;94424.31;5030588;28;20116;-91
2022/08/02 03:04:14;;;;;;;2.50;1.90;;;;;;;21.80;52.39;94422.50;5019451;28;20034;-90
2022/08/02 03:06:45;;;;;;;3.67;2.20;;;;;;;21.80;52.55;94416.41;5002478;28;20036;-91
2022/08/02 03:09:10;;;;;;;4.25;2.47;;;;;;;21.86;52.13;94415.84;5018629;28;20432;-91
2022/08/02 03:11:39;;;;;;;2.55;1.95;;;;;;;21.92;52.25;94405.72;5002630;28;20038;-90
2022/08/02 03:14:12;;;;;;;3.13;1.77;;;;;;;22.01;53.58;94410.91;5019649;28;20378;-91
2022/08/02 03:16:42;;;;;;;2.92;1.90;;;;;;;22.00;53.81;94409.34;5003113;28;20124;-90
2022/08/02 03:19:08;;;;;;;2.13;1.70;;;;;;;21.99;54.41;94405.91;5018630;28;20076;-91
2022/08/02 03:21:41;;;;;;;2.17;1.63;;;;;;;21.92;54.20;94400.38;5002317;28;20029;-90
2022/08/02 03:24:07;;;;;;;2.50;1.80;;;;;;;21.86;53.95;94405.19;5002444;28;20121;-90
2022/08/02 03:26:32;;;;;;;2.25;1.48;;;;;;;21.98;52.88;94407.03;5018152;28;20109;-90
2022/08/02 03:28:58;;;;;;;2.80;1.95;;;;;;;22.09;55.35;94417.97;5018177;28;20422;-91
2022/08/02 03:31:25;;;;;;;3.15;2.03;;;;;;;22.00;53.86;94412.03;5018453;28;20037;-91
2022/08/02 03:33:52;;;;;;;1.92;1.50;;;;;;;22.06;53.85;94423.22;5018634;28;20073;-90
2022/08/02 03:36:20;;;;;;;4.00;1.80;;;;;;;22.09;53.36;94420.63;5018154;28;20026;-91
2022/08/02 03:38:46;;;;;;;2.33;1.80;;;;;;;22.28;51.76;94424.59;5019178;28;20032;-90
2022/08/02 03:41:13;;;;;;;3.75;1.70;;;;;;;22.21;52.18;94421.72;5001796;28;20034;-90
2022/08/02 03:43:39;;;;;;;1.90;1.67;;;;;;;22.16;52.51;94426.19;5002129;28;20029;-91
2022/08/02 03:46:06;;;;;;;2.65;1.80;;;;;;;22.31;51.97;94427.34;5018000;28;20392;-91
2022/08/02 03:48:32;;;;;;;2.47;2.20;;;;;;;22.04;53.92;94439.56;5017822;28;20033;-90
2022/08/02 03:50:58;;;;;;;3.38;1.90;;;;;;;22.04;55.75;94444.91;5021176;28;20412;-90
2022/08/02 03:53:24;;;;;;;5.88;1.80;;;;;;;22.18;59.48;94453.31;5001622;28;20124;-88
2022/08/02 03:55:50;;;;;;;3.33;2.03;;;;;;;22.21;69.57;94454.53;5017972;28;20442;-88
2022/08/02 03:58:19;;;;;;;8.32;2.55;;;;;;;22.25;67.12;94467.97;5017900;28;20450;-87
2022/08/02 04:00:45;;;;;;;5.50;2.25;;;;;;;22.16;74.23;94458.22;5001493;28;20053;-87
2022/08/02 04:03:10;;;;;;;9.93;2.10;;;;;;;22.05;76.88;94464.38;5017751;28;20403;-87
2022/08/02 04:05:36;;;;;;;5.18;1.98;;;;;;;22.00;77.61;94481.38;5017736;28;20033;-86
2022/08/02 04:08:01;;;;;;;3.72;1.95;;;;;;;21.81;77.21;94472.09;5017415;28;20041;-87
2022/08/02 04:10:27;;;;;;;5.97;1.67;;;;;;;21.59;78.65;94468.75;5018915;28;20026;-88
2022/08/02 04:12:53;;;;;;;2.50;1.52;;;;;;;21.54;80.01;94479.66;5001424;28;20029;-87
2022/08/02 04:15:18;;;;;;;4.63;1.92;;;;;;;21.43;82.06;94484.63;5017667;28;20454;-88
2022/08/02 04:17:55;;;;;;;5.10;2.40;;;;;;;21.50;85.36;94481.41;5018772;28;20030;-87
2022/08/02 04:20:24;;;;;;;13.35;3.05;;;;;;;21.31;88.75;94477.44;5017535;28;20026;-87
2022/08/02 04:23:05;;;;;;;5.97;2.65;;;;;;;21.39;89.25;94483.00;5001250;28;20338;-87
2022/08/02 04:25:32;;;;;;;10.98;3.00;;;;;;;21.40;93.53;94481.88;5001429;28;20029;-87
2022/08/02 04:27:59;;;;;;;9.77;3.05;;;;;;;21.22;97.76;94483.97;5017165;28;20036;-87
2022/08/02 04:30:24;;;;;;;3.83;1.83;;;;;;;21.14;96.35;94494.38;5001447;28;20442;-87
2022/08/02 04:32:50;;;;;;;5.90;2.50;;;;;;;20.82;99.68;94506.66;5017172;28;20124;-87
2022/08/02 04:35:15;;;;;;;8.48;2.70;;;;;;;20.96;100.00;94503.69;5001175;28;20026;-87
2022/08/02 04:37:41;;;;;;;26.00;4.63;;;;;;;20.59;100.00;94513.13;5016587;28;20034;-87
2022/08/02 04:40:11;;;;;;;8.82;2.45;;;;;;;20.63;100.00;94515.88;5018502;28;20029;-87
2022/08/02 04:42:36;;;;;;;7.55;3.05;;;;;;;20.57;100.00;94517.97;5016902;28;20029;-87
2022/08/02 04:45:03;;;;;;;7.20;4.10;;;;;;;20.36;100.00;94530.53;5017048;28;20491;-87
2022/08/02 04:47:29;;;;;;;6.88;3.13;;;;;;;20.61;100.00;94526.09;5000902;28;20033;-87
2022/08/02 04:49:54;;;;;;;6.78;3.13;;;;;;;20.44;100.00;94542.97;5017390;28;20083;-87
2022/08/02 04:52:20;;;;;;;5.75;2.80;;;;;;;20.53;100.00;94538.38;5016986;28;20081;-87
2022/08/02 04:54:45;;;;;;;3.85;2.80;;;;;;;20.37;100.00;94554.16;5000684;28;20469;-87
2022/08/02 04:59:55;;;;;;;13.57;4.03;;;;;;;20.35;100.00;94569.66;5016745;28;20087;-87
2022/08/02 05:02:21;;;;;;;8.35;3.92;;;;;;;20.66;100.00;94571.16;5016780;28;20029;-87
2022/08/02 05:04:46;;;;;;;10.70;4.82;;;;;;;20.34;100.00;94579.53;5016635;28;20061;-88
2022/08/02 05:07:11;;;;;;;8.30;4.57;;;;;;;20.30;100.00;94586.63;5016690;28;20068;-87
2022/08/02 05:09:37;;;;;;;9.02;4.57;;;;;;;20.60;100.00;94589.19;5017795;28;20088;-87
2022/08/02 05:12:28;;;;;;;8.25;4.00;;;;;;;20.33;100.00;94590.50;5016440;28;20033;-87
2022/08/02 05:14:54;;;;;;;6.88;3.80;;;;;;;20.42;100.00;94599.19;5017522;28;20032;-87
2022/08/02 05:17:19;;;;;;;7.68;3.58;;;;;;;20.56;100.00;94606.91;5016615;28;20331;-87
2022/08/02 05:20:22;;;;;;;;;;;;;;;;;;;;;
2022/08/02 05:22:52;;;;;;;9.45;3.78;;;;;;;20.92;100.00;94601.34;5017084;28;20033;-87
2022/08/02 05:25:20;;;;;;;10.02;4.38;;;;;;;20.87;100.00;94613.75;5006796;28;20033;-87
2022/08/02 05:27:55;;;;;;;7.38;4.10;;;;;;;20.81;100.00;94617.72;5036418;28;20099;-87
2022/08/02 05:30:49;;;;;;;;;;;;;;;;;;;;;
2022/08/02 05:33:22;;;;;;;5.63;2.63;;;;;;;21.62;100.00;94619.28;5015988;28;20044;-87
2022/08/02 05:35:57;;;;;;;;;;;;;;;;;;;;;
2022/08/02 05:38:33;;;;;;;;;;;;;;;;;;;;;
2022/08/02 05:40:59;;;;;;;27.60;5.90;;;;;;;21.77;100.00;94627.75;5015916;28;20339;-89
2022/08/02 05:43:25;;;;;;;13.20;5.13;;;;;;;21.61;100.00;94626.47;5015802;28;20120;-89
2022/08/02 05:45:52;;;;;;;12.30;4.15;;;;;;;21.96;100.00;94629.88;5017299;28;20026;-88
2022/08/02 05:48:17;;;;;;;12.63;5.10;;;;;;;22.10;100.00;94630.31;5017150;28;20022;-88
2022/08/02 05:50:44;;;;;;;17.02;5.63;;;;;;;22.02;100.00;94631.19;5015734;28;20412;-88
2022/08/02 05:53:40;;;;;;;33.78;7.45;;;;;;;22.05;100.00;94643.09;5015668;28;20497;-89
2022/08/02 05:56:50;;;;;;;;;;;;;;;;;;;;;
2022/08/02 05:59:37;;;;;;;17.45;6.68;;;;;;;21.46;100.00;94653.78;5017089;28;20028;-89
2022/08/02 06:02:35;;;;;;;19.75;5.97;;;;;;;21.32;100.00;94664.75;5000071;28;20125;-89
2022/08/02 06:05:06;;;;;;;27.15;6.88;;;;;;;21.42;100.00;94664.31;5015635;28;20037;-88
2022/08/02 06:07:35;;;;;;;20.65;5.28;;;;;;;21.60;100.00;94664.91;5031190;28;20040;-88
2022/08/02 06:10:05;;;;;;;66.47;9.38;;;;;;;21.70;100.00;94677.06;5018877;28;20061;-89
2022/08/02 06:12:32;;;;;;;19.92;6.45;;;;;;;21.50;100.00;94702.63;5019318;28;20032;-89
2022/08/02 06:15:03;;;;;;;11.73;5.13;;;;;;;21.68;100.00;94700.63;5018955;28;20037;-89
2022/08/02 06:17:29;;;;;;;26.45;6.82;;;;;;;21.50;100.00;94694.66;5035788;28;20040;-90
2022/08/02 06:19:59;;;;;;;47.97;10.85;;;;;;;21.26;100.00;94688.16;5018949;28;20029;-91
2022/08/02 06:22:25;;;;;;;22.52;8.43;;;;;;;20.61;100.00;94702.56;5035294;28;20025;-88
2022/08/02 06:24:51;;;;;;;23.17;8.32;;;;;;;20.51;100.00;94702.13;5015463;28;20503;-89
2022/08/02 06:27:17;;;;;;;30.73;8.23;;;;;;;20.46;100.00;94703.13;5015712;28;20036;-90
2022/08/02 06:29:43;;;;;;;26.00;9.63;;;;;;;20.23;100.00;94721.22;5015312;28;20034;-88
2022/08/02 06:32:09;;;;;;;33.08;10.02;;;;;;;20.25;100.00;94724.34;4999435;28;20506;-87
2022/08/02 06:34:40;;;;;;;32.65;8.93;;;;;;;20.18;100.00;94725.63;5015474;28;20038;-86
2022/08/02 06:37:43;;;;;;;23.98;8.40;;;;;;;20.42;100.00;94724.25;4999228;28;20030;-87
2022/08/02 06:40:31;;;;;;;18.40;8.65;;;;;;;20.13;100.00;94739.09;5002178;28;20073;-87
2022/08/02 06:43:10;;;;;;;21.70;6.95;;;;;;;20.28;100.00;94734.34;5015169;28;20033;-86
2022/08/02 06:45:45;;;;;;;24.60;7.72;;;;;;;20.39;100.00;94743.53;5021464;28;20057;-87
2022/08/02 06:48:12;;;;;;;11.95;6.15;;;;;;;20.46;100.00;94751.78;5000482;28;20390;-87
2022/08/02 06:50:48;;;;;;;;;;;;;;;;;;;;;
2022/08/02 06:53:14;;;;;;;34.60;6.38;;;;;;;20.24;100.00;94758.16;5015178;28;20014;-86
2022/08/02 06:55:43;;;;;;;21.10;6.07;;;;;;;20.33;100.00;94763.44;5015246;28;20026;-86
2022/08/02 06:58:18;;;;;;;;;;;;;;;;;;;;;
2022/08/02 07:00:44;;;;;;;21.52;5.78;;;;;;;20.42;100.00;94776.69;5015576;28;20331;-87
2022/08/02 07:03:09;;;;;;;17.73;5.32;;;;;;;20.87;100.00;94784.19;5018861;28;20105;-87
2022/08/02 07:05:35;;;;;;;16.00;4.80;;;;;;;20.97;100.00;94796.34;5018959;28;20351;-86
2022/08/02 07:08:01;;;;;;;16.35;4.45;;;;;;;20.89;100.00;94800.63;5019165;28;20097;-87
2022/08/02 07:10:27;;;;;;;21.92;5.00;;;;;;;20.60;100.00;94807.47;5028944;28;20032;-88
2022/08/02 07:12:55;;;;;;;16.05;4.82;;;;;;;20.56;100.00;94808.44;5038604;28;20632;-88
2022/08/02 07:15:38;;;;;;;17.02;4.63;;;;;;;20.53;100.00;94814.38;5022907;28;20335;-88
2022/08/02 07:18:13;;;;;;;21.73;5.30;;;;;;;20.20;100.00;94795.25;5022219;28;20423;-88
2022/08/02 07:20:42;;;;;;;15.65;3.90;;;;;;;19.75;100.00;94793.75;5038519;28;20041;-88
2022/08/02 07:23:18;;;;;;;21.50;5.00;;;;;;;19.97;100.00;94762.78;5022155;28;20450;-88
2022/08/02 07:25:47;;;;;;;22.95;4.63;;;;;;;19.82;100.00;94755.28;5022129;28;20033;-87
2022/08/02 07:28:23;;;;;;;19.80;4.60;;;;;;;19.60;100.00;94757.81;5022258;28;20448;-89
2022/08/02 07:30:50;;;;;;;20.98;4.78;;;;;;;20.00;100.00;94772.00;5022021;28;20030;-89
2022/08/02 07:33:18;;;;;;;17.05;4.05;;;;;;;20.16;100.00;94783.69;5022140;28;20377;-89
2022/08/02 07:36:02;;;;;;;21.40;4.70;;;;;;;20.03;100.00;94792.63;5022577;28;20025;-89
2022/08/02 07:38:39;;;;;;;;;;;;;;;;;;;;;
2022/08/02 07:41:15;;;;;;;;;;;;;;;;;;;;;
2022/08/02 07:43:54;;;;;;;13.80;3.70;;;;;;;20.70;100.00;94792.22;5038882;28;20030;-88
2022/08/02 07:46:33;;;;;;;;;;;;;;;;;;;;;
2022/08/02 07:49:17;;;;;;;;;;;;;;;;;;;;;
2022/08/02 07:51:58;;;;;;;;;;;;;;;;;;;;;
2022/08/02 07:54:51;;;;;;;;;;;;;;;;;;;;;
2022/08/02 07:57:19;;;;;;;21.83;4.28;;;;;;;20.31;100.00;94765.63;5037658;28;20018;-88
2022/08/02 07:59:50;;;;;;;14.23;3.30;;;;;;;20.08;100.00;94773.06;5039560;28;20021;-88
2022/08/02 08:02:19;;;;;;;22.88;4.00;;;;;;;20.20;100.00;94775.84;5038904;28;20117;-88
2022/08/02 08:04:46;;;;;;;21.67;4.47;;;;;;;20.13;100.00;94772.88;5021607;28;20422;-88
2022/08/02 08:07:19;;;;;;;18.90;3.83;;;;;;;20.10;100.00;94766.34;5037568;28;20079;-88
2022/08/02 08:09:46;;;;;;;22.52;4.90;;;;;;;20.12;100.00;94766.81;5022175;28;20335;-88
2022/08/02 08:12:12;;;;;;;17.10;3.40;;;;;;;20.56;100.00;94769.25;5037119;28;20025;-87
2022/08/02 08:14:38;;;;;;;20.10;3.90;;;;;;;21.27;100.00;94769.63;5036818;28;20450;-87
2022/08/02 08:17:05;;;;;;;17.02;3.13;;;;;;;22.12;100.00;94766.84;5021389;28;20036;-87
2022/08/02 08:19:31;;;;;;;10.57;2.33;;;;;;;22.53;100.00;94772.34;5037604;28;20083;-88
2022/08/02 08:21:59;;;;;;;14.02;3.03;;;;;;;22.66;100.00;94773.09;5020944;28;20025;-87
2022/08/02 08:24:28;;;;;;;10.60;3.05;;;;;;;22.40;100.00;94779.53;5037253;28;20032;-88
2022/08/02 08:26:54;;;;;;;14.95;3.00;;;;;;;22.82;100.00;94783.88;5037155;28;20029;-87
2022/08/02 08:29:20;;;;;;;10.63;2.45;;;;;;;22.91;100.00;94781.09;5037113;28;20033;-88
2022/08/02 08:31:46;;;;;;;13.63;2.50;;;;;;;23.33;100.00;94781.94;5037117;28;20078;-87
2022/08/02 08:34:12;;;;;;;10.80;2.70;;;;;;;23.93;100.00;94778.56;5036990;28;20037;-87
2022/08/02 08:36:37;;;;;;;13.82;3.10;;;;;;;24.30;100.00;94775.69;5037276;28;20037;-87
2022/08/02 08:39:06;;;;;;;12.07;2.30;;;;;;;24.71;100.00;94775.47;5038060;28;20021;-87
2022/08/02 08:41:32;;;;;;;9.23;2.45;;;;;;;25.32;100.00;94776.06;5037165;28;20036;-87
2022/08/02 08:44:07;;;;;;;8.32;1.83;;;;;;;25.05;100.00;94770.53;5037977;28;20328;-87
2022/08/02 08:46:36;;;;;;;8.63;1.40;;;;;;;25.69;100.00;94774.88;5038040;28;20391;-87
2022/08/02 08:49:25;;;;;;;10.07;1.60;;;;;;;24.90;100.00;94779.38;5036743;28;20040;-87
2022/08/02 08:51:54;;;;;;;11.05;2.10;;;;;;;24.76;100.00;94774.44;5033297;28;20045;-87
2022/08/02 08:54:23;;;;;;;7.05;1.80;;;;;;;25.11;100.00;94776.38;5020354;28;20037;-87
2022/08/02 08:56:50;;;;;;;8.75;2.03;;;;;;;24.91;100.00;94775.56;5038146;28;20116;-87
2022/08/02 08:59:16;;;;;;;4.60;1.58;;;;;;;24.61;100.00;94766.09;5036633;28;20022;-87
2022/08/02 09:01:43;;;;;;;9.48;1.77;;;;;;;23.93;100.00;94751.78;5036520;28;20056;-86
2022/08/02 09:04:09;;;;;;;5.30;1.60;;;;;;;23.31;100.00;94742.16;5036129;28;20051;-86
2022/08/02 09:06:34;;;;;;;5.95;1.63;;;;;;;23.15;100.00;94739.41;5036212;28;20083;-86
2022/08/02 09:08:59;;;;;;;7.95;2.13;;;;;;;24.18;100.00;94743.66;5036085;28;20032;-86
2022/08/02 09:11:25;;;;;;;10.23;1.90;;;;;;;24.21;100.00;94753.66;5037276;28;20029;-86
2022/08/02 09:13:53;;;;;;;11.35;2.40;;;;;;;24.59;100.00;94746.91;5037166;28;20061;-86
2022/08/02 09:16:31;;;;;;;10.25;1.67;;;;;;;24.79;100.00;94746.97;5019804;28;20048;-86
2022/08/02 09:18:57;;;;;;;12.07;1.70;;;;;;;23.94;100.00;94742.66;5035948;28;20021;-87
2022/08/02 09:21:23;;;;;;;5.40;1.27;;;;;;;24.07;100.00;94740.72;5036285;28;20032;-86
2022/08/02 09:23:50;;;;;;;7.47;1.58;;;;;;;23.74;100.00;94737.19;5035501;28;20033;-88
2022/08/02 09:26:18;;;;;;;3.38;1.33;;;;;;;23.75;100.00;94730.72;5037322;28;20450;-87
2022/08/02 09:28:48;;;;;;;3.72;1.05;;;;;;;23.51;100.00;94739.66;5036040;28;20546;-86
2022/08/02 09:31:23;;;;;;;3.53;1.50;;;;;;;24.00;100.00;94735.94;5035842;28;20032;-86
2022/08/02 09:33:58;;;;;;;6.03;1.58;;;;;;;23.84;100.00;94741.25;5036935;28;20026;-87
2022/08/02 09:36:25;;;;;;;11.98;1.80;;;;;;;23.82;100.00;94740.81;5019766;28;20037;-86
2022/08/02 09:39:01;;;;;;;1.95;1.27;;;;;;;24.18;100.00;94740.97;5019100;28;20033;-86
2022/08/02 09:41:32;;;;;;;5.47;1.45;;;;;;;24.00;100.00;94738.63;5036033;28;20175;-86
2022/08/02 09:43:58;;;;;;;2.60;1.10;;;;;;;24.52;100.00;94733.34;5035603;28;20022;-86
2022/08/02 09:46:29;;;;;;;7.70;1.35;;;;;;;24.65;100.00;94736.69;5020140;28;20021;-85
2022/08/02 09:49:02;;;;;;;2.97;1.10;;;;;;;24.53;100.00;94735.69;5019577;28;20060;-86
2022/08/02 09:51:36;;;;;;;;;;;;;;;24.40;100.00;94732.34;5019746;28;20120;-85
2022/08/02 09:54:05;;;;;;;2.22;1.10;;;;;;;24.20;100.00;94720.78;5036674;28;19999;-85
2022/08/02 09:56:45;;;;;;;5.43;1.20;;;;;;;24.42;100.00;94727.41;5021382;28;20026;-86
2022/08/02 09:59:12;;;;;;;1.70;1.10;;;;;;;24.61;100.00;94723.22;4999354;28;20419;-85
2022/08/02 10:01:38;;;;;;;2.35;1.17;;;;;;;25.02;100.00;94724.88;5019226;28;20338;-85
2022/08/02 10:04:05;;;;;;;5.72;1.20;;;;;;;24.93;100.00;94714.38;5018867;28;20036;-85
2022/08/02 10:06:31;;;;;;;4.03;1.10;;;;;;;24.81;100.00;94717.94;5019108;28;20033;-85
2022/08/02 10:08:57;;;;;;;3.70;1.00;;;;;;;24.77;100.00;94717.88;5024448;28;20436;-87
2022/08/02 10:11:24;;;;;;;2.25;0.90;;;;;;;24.83;100.00;94710.34;5015858;28;20069;-86
2022/08/02 10:14:00;;;;;;;;;;;;;;;;;;;;;
2022/08/02 10:16:28;;;;;;;2.13;0.90;;;;;;;24.99;100.00;94707.59;5032124;28;20435;-85
2022/08/02 10:19:05;;;;;;;6.72;1.00;;;;;;;24.88;100.00;94703.91;5015968;28;20092;-86
2022/08/02 10:21:47;;;;;;;4.93;2.53;;;;;;;25.02;100.00;94714.16;5000767;28;20030;-86
2022/08/02 10:24:24;;;;;;;5.05;0.93;;;;;;;25.20;100.00;94717.19;4999518;28;20091;-86
2022/08/02 10:26:49;;;;;;;1.95;1.05;;;;;;;24.53;100.00;94708.91;5016629;28;20073;-86
2022/08/02 10:29:18;;;;;;;2.30;0.80;;;;;;;24.98;100.00;94712.19;5015356;28;20022;-86
2022/08/02 10:31:51;;;;;;;4.82;1.20;;;;;;;25.15;100.00;94706.75;4999255;28;20026;-86
2022/08/02 10:34:19;;;;;;;2.20;1.17;;;;;;;25.79;100.00;94706.44;5015579;28;20379;-85
2022/08/02 10:36:45;;;;;;;2.20;1.00;;;;;;;25.81;100.00;94710.28;5017580;28;20339;-87
2022/08/02 10:39:11;;;;;;;5.43;1.13;;;;;;;26.20;100.00;94705.97;5003089;28;20030;-86
2022/08/02 10:41:47;;;;;;;1.88;1.00;;;;;;;26.20;100.00;94708.66;5019381;28;20068;-86
2022/08/02 10:44:25;;;;;;;2.50;1.13;;;;;;;26.45;93.64;94700.22;5002881;28;20030;-86
2022/08/02 10:46:51;;;;;;;2.88;1.00;;;;;;;26.19;100.00;94705.22;5002971;28;20030;-86
2022/08/02 10:49:18;;;;;;;3.72;1.10;;;;;;;26.00;96.58;94703.34;5019100;28;20026;-86
2022/08/02 10:51:59;;;;;;;6.45;0.98;;;;;;;26.73;84.76;94699.06;5020470;28;20033;-86
2022/08/02 10:54:39;;;;;;;3.60;1.17;;;;;;;26.36;86.73;94692.41;5019180;28;20104;-85
2022/08/02 10:57:35;;;;;;;4.88;1.10;;;;;;;26.42;93.22;94696.31;5013207;28;20347;-86
2022/08/02 11:00:02;;;;;;;3.33;1.00;;;;;;;26.84;89.63;94688.44;5005056;28;20049;-87
2022/08/02 11:02:47;;;;;;;4.68;1.10;;;;;;;27.36;80.46;94688.69;5018979;28;20030;-86
2022/08/02 11:05:28;;;;;;;3.03;1.13;;;;;;;26.87;81.96;94682.38;5019112;28;20145;-86
2022/08/02 11:07:53;;;;;;;3.53;1.00;;;;;;;27.22;86.56;94681.25;5018925;28;20026;-86
2022/08/02 11:10:25;;;;;;;5.38;1.15;;;;;;;27.23;83.74;94677.44;5002573;28;20133;-86
2022/08/02 11:13:18;;;;;;;3.97;1.30;;;;;;;26.34;85.17;94679.31;5018525;28;20037;-87
2022/08/02 11:15:46;;;;;;;4.03;1.13;;;;;;;25.58;100.00;94674.63;5016541;28;20033;-87
2022/08/02 11:18:12;;;;;;;2.92;1.10;;;;;;;25.99;91.21;94680.31;5019638;28;20040;-87
2022/08/02 11:20:37;;;;;;;4.88;1.30;;;;;;;26.08;96.92;94669.31;5018561;28;20411;-87
2022/08/02 11:23:35;;;;;;;1.80;1.02;;;;;;;26.91;89.33;94670.53;5018542;28;20080;-87
2022/08/02 11:26:07;;;;;;;2.72;1.23;;;;;;;27.98;81.90;94673.94;5019751;28;20052;-88
2022/08/02 11:28:32;;;;;;;4.28;1.35;;;;;;;28.12;74.39;94667.09;5018458;28;20026;-87
2022/08/02 11:30:59;;;;;;;2.28;0.98;;;;;;;27.77;70.69;94672.59;5018554;28;20076;-87
2022/08/02 11:33:34;;;;;;;1.27;0.95;;;;;;;28.32;75.11;94665.75;5018266;28;20079;-87
2022/08/02 11:36:03;;;;;;;3.47;1.10;;;;;;;27.45;85.96;94662.28;5002412;28;20029;-88
2022/08/02 11:38:28;;;;;;;2.75;0.90;;;;;;;27.61;84.10;94666.69;5018101;28;20025;-86
2022/08/02 11:40:54;;;;;;;5.85;1.10;;;;;;;26.63;77.53;94658.25;5018000;28;20080;-87
2022/08/02 11:43:38;;;;;;;7.40;1.30;;;;;;;26.84;78.02;94653.50;5017247;28;20080;-86
2022/08/02 11:46:25;;;;;;;;;;;;;;;;;;;;;
2022/08/02 11:48:53;;;;;;;2.15;1.10;;;;;;;26.73;86.02;94651.44;5018177;28;20018;-88
2022/08/02 11:51:29;;;;;;;1.77;1.05;;;;;;;27.14;82.28;94658.09;5018138;28;20030;-87
2022/08/02 11:54:08;;;;;;;2.50;1.17;;;;;;;26.30;91.71;94648.97;5001872;28;20083;-87
2022/08/02 11:57:03;;;;;;;3.03;1.15;;;;;;;26.24;81.76;94635.06;5019377;28;20026;-86
2022/08/02 11:59:41;;;;;;;;;;;;;;;;;;;;;
2022/08/02 12:02:45;;;;;;;;;;;;;;;;;;;;;
2022/08/02 12:05:47;;;;;;;;;;;;;;;;;;;;;
2022/08/02 12:08:23;;;;;;;;;;;;;;;;;;;;;
2022/08/02 12:11:12;;;;;;;1.90;1.17;;;;;;;27.55;81.26;94633.97;5017735;28;20020;-89
2022/08/02 12:14:14;;;;;;;;;;;;;;;;;;;;;
2022/08/02 12:19:50;;;;;;;2.08;1.10;;;;;;;26.99;76.51;94627.59;5018450;28;20041;-86
2022/08/02 12:22:36;;;;;;;4.05;1.23;;;;;;;27.71;78.96;94627.56;5032728;28;20021;-88